sensor_id;sensor_type;location;lat;lon;timestamp;pressure;altitude;pressure_sealevel;temperature;humidity
71964;BME280;59834;52.124;5.422;2023-02-19T00:02:06;101764.56;;;9.17;100.00
71964;BME280;59834;52.124;5.422;2023-02-19T00:04:33;101765.41;;;9.18;100.00
71964;BME280;59834;52.124;5.422;2023-02-19T00:06:59;101765.41;;;9.18;100.00
71964;BME280;59834;52.124;5.422;2023-02-19T00:09:26;101763.72;;;9.17;100.00
71964;BME280;59834;52.124;5.422;2023-02-19T00:11:52;101769.03;;;9.15;100.00
71964;BME280;59834;52.124;5.422;2023-02-19T00:14:20;101766.41;;;9.15;100.00
71964;BME280;59834;52.124;5.422;2023-02-19T00:16:47;101764.69;;;9.14;100.00
71964;BME280;59834;52.124;5.422;2023-02-19T00:19:17;101768.22;;;9.13;100.00
71964;BME280;59834;52.124;5.422;2023-02-19T00:21:44;101773.44;;;9.13;100.00
71964;BME280;59834;52.124;5.422;2023-02-19T00:24:12;101770.88;;;9.12;100.00
71964;BME280;59834;52.124;5.422;2023-02-19T00:26:39;101767.38;;;9.13;100.00
71964;BME280;59834;52.124;5.422;2023-02-19T00:29:06;101777.81;;;9.13;100.00
71964;BME280;59834;52.124;5.422;2023-02-19T00:31:35;101779.59;;;9.12;100.00
71964;BME280;59834;52.124;5.422;2023-02-19T00:34:03;101784.81;;;9.12;100.00
71964;BME280;59834;52.124;5.422;2023-02-19T00:36:32;101787.44;;;9.12;100.00
71964;BME280;59834;52.124;5.422;2023-02-19T00:39:01;101781.34;;;9.12;100.00
71964;BME280;59834;52.124;5.422;2023-02-19T00:41:27;101779.66;;;9.11;100.00
71964;BME280;59834;52.124;5.422;2023-02-19T00:44:01;101782.25;;;9.11;100.00
71964;BME280;59834;52.124;5.422;2023-02-19T00:48:57;101777.97;;;9.10;100.00
71964;BME280;59834;52.124;5.422;2023-02-19T00:51:27;101783.19;;;9.10;100.00
71964;BME280;59834;52.124;5.422;2023-02-19T00:53:53;101788.41;;;9.10;100.00
71964;BME280;59834;52.124;5.422;2023-02-19T00:56:20;101778.81;;;9.10;100.00
71964;BME280;59834;52.124;5.422;2023-02-19T00:58:47;101784.88;;;9.11;100.00
71964;BME280;59834;52.124;5.422;2023-02-19T01:01:14;101792.66;;;9.12;100.00
71964;BME280;59834;52.124;5.422;2023-02-19T01:03:41;101785.78;;;9.10;100.00
71964;BME280;59834;52.124;5.422;2023-02-19T01:06:09;101789.31;;;9.09;100.00
71964;BME280;59834;52.124;5.422;2023-02-19T01:08:37;101791.94;;;9.09;100.00
71964;BME280;59834;52.124;5.422;2023-02-19T01:11:04;101791.06;;;9.08;100.00
71964;BME280;59834;52.124;5.422;2023-02-19T01:13:31;101789.25;;;9.10;100.00
71964;BME280;59834;52.124;5.422;2023-02-19T01:16:25;101799.69;;;9.10;100.00
71964;BME280;59834;52.124;5.422;2023-02-19T01:18:53;101808.38;;;9.11;100.00
71964;BME280;59834;52.124;5.422;2023-02-19T01:21:22;101812.75;;;9.10;100.00
71964;BME280;59834;52.124;5.422;2023-02-19T01:23:50;101811.00;;;9.11;100.00
71964;BME280;59834;52.124;5.422;2023-02-19T01:26:19;101807.44;;;9.12;100.00
71964;BME280;59834;52.124;5.422;2023-02-19T01:28:46;101811.91;;;9.10;100.00
71964;BME280;59834;52.124;5.422;2023-02-19T01:31:19;101819.03;;;9.06;100.00
71964;BME280;59834;52.124;5.422;2023-02-19T01:33:47;101818.19;;;9.06;100.00
71964;BME280;59834;52.124;5.422;2023-02-19T01:36:14;101822.59;;;9.04;100.00
71964;BME280;59834;52.124;5.422;2023-02-19T01:38:41;101820.91;;;9.03;100.00
71964;BME280;59834;52.124;5.422;2023-02-19T01:41:11;101823.53;;;9.03;100.00
71964;BME280;59834;52.124;5.422;2023-02-19T01:43:59;101828.88;;;9.00;100.00
71964;BME280;59834;52.124;5.422;2023-02-19T01:46:36;101822.81;;;8.99;100.00
71964;BME280;59834;52.124;5.422;2023-02-19T01:49:11;101822.84;;;8.97;100.00
71964;BME280;59834;52.124;5.422;2023-02-19T01:51:46;101822.94;;;8.96;100.00
71964;BME280;59834;52.124;5.422;2023-02-19T01:54:16;101823.06;;;8.93;100.00
71964;BME280;59834;52.124;5.422;2023-02-19T01:56:47;101822.22;;;8.92;100.00
71964;BME280;59834;52.124;5.422;2023-02-19T01:59:15;101817.94;;;8.90;100.00
71964;BME280;59834;52.124;5.422;2023-02-19T02:01:41;101824.97;;;8.88;100.00
71964;BME280;59834;52.124;5.422;2023-02-19T02:04:09;101823.28;;;8.87;100.00
71964;BME280;59834;52.124;5.422;2023-02-19T02:06:42;101825.06;;;8.86;100.00
71964;BME280;59834;52.124;5.422;2023-02-19T02:09:10;101821.66;;;8.84;100.00
71964;BME280;59834;52.124;5.422;2023-02-19T02:11:56;101829.47;;;8.84;100.00
71964;BME280;59834;52.124;5.422;2023-02-19T02:14:25;101829.44;;;8.86;100.00
71964;BME280;59834;52.124;5.422;2023-02-19T02:17:11;101825.97;;;8.85;100.00
71964;BME280;59834;52.124;5.422;2023-02-19T02:30:53;101825.38;;;8.79;100.00
71964;BME280;59834;52.124;5.422;2023-02-19T02:33:45;101832.34;;;8.78;100.00
71964;BME280;59834;52.124;5.422;2023-02-19T02:36:16;101828.88;;;8.78;100.00
71964;BME280;59834;52.124;5.422;2023-02-19T02:38:45;101830.72;;;8.76;100.00
71964;BME280;59834;52.124;5.422;2023-02-19T02:41:13;101839.41;;;8.76;100.00
71964;BME280;59834;52.124;5.422;2023-02-19T02:43:41;101836.84;;;8.74;100.00
71964;BME280;59834;52.124;5.422;2023-02-19T02:46:12;101838.59;;;8.74;100.00
71964;BME280;59834;52.124;5.422;2023-02-19T02:48:48;101841.28;;;8.72;100.00
71964;BME280;59834;52.124;5.422;2023-02-19T02:51:28;101840.44;;;8.72;100.00
71964;BME280;59834;52.124;5.422;2023-02-19T02:54:00;101850.88;;;8.72;100.00
71964;BME280;59834;52.124;5.422;2023-02-19T02:56:48;101843.91;;;8.72;100.00
71964;BME280;59834;52.124;5.422;2023-02-19T02:59:19;101836.91;;;8.73;100.00
71964;BME280;59834;52.124;5.422;2023-02-19T03:01:52;101842.13;;;8.73;100.00
71964;BME280;59834;52.124;5.422;2023-02-19T03:05:05;101850.88;;;8.72;100.00
71964;BME280;59834;52.124;5.422;2023-02-19T03:08:03;101848.25;;;8.72;100.00
71964;BME280;59834;52.124;5.422;2023-02-19T03:10:42;101850.00;;;8.71;100.00
71964;BME280;59834;52.124;5.422;2023-02-19T03:13:18;101854.38;;;8.71;100.00
71964;BME280;59834;52.124;5.422;2023-02-19T03:16:17;101869.91;;;8.74;100.00
71964;BME280;59834;52.124;5.422;2023-02-19T03:19:10;101864.81;;;8.71;100.00
71964;BME280;59834;52.124;5.422;2023-02-19T03:24:17;101871.75;;;8.72;100.00
71964;BME280;59834;52.124;5.422;2023-02-19T03:27:04;101867.44;;;8.71;100.00
71964;BME280;59834;52.124;5.422;2023-02-19T03:29:31;101866.66;;;8.69;100.00
71964;BME280;59834;52.124;5.422;2023-02-19T03:32:04;101864.88;;;8.69;100.00
71964;BME280;59834;52.124;5.422;2023-02-19T03:34:37;101873.56;;;8.70;100.00
71964;BME280;59834;52.124;5.422;2023-02-19T03:37:16;101874.38;;;8.72;100.00
71964;BME280;59834;52.124;5.422;2023-02-19T03:39:44;101872.66;;;8.71;100.00
71964;BME280;59834;52.124;5.422;2023-02-19T03:49:48;101885.69;;;8.71;100.00
71964;BME280;59834;52.124;5.422;2023-02-19T03:52:35;101878.91;;;8.67;100.00
71964;BME280;59834;52.124;5.422;2023-02-19T03:55:22;101890.16;;;8.69;100.00
71964;BME280;59834;52.124;5.422;2023-02-19T03:57:58;101891.16;;;8.65;100.00
71964;BME280;59834;52.124;5.422;2023-02-19T04:00:33;101898.25;;;8.61;100.00
71964;BME280;59834;52.124;5.422;2023-02-19T04:05:52;101896.63;;;8.59;100.00
71964;BME280;59834;52.124;5.422;2023-02-19T04:08:22;101910.56;;;8.58;100.00
71964;BME280;59834;52.124;5.422;2023-02-19T04:10:50;101909.78;;;8.56;100.00
71964;BME280;59834;52.124;5.422;2023-02-19T04:13:26;101916.81;;;8.54;100.00
71964;BME280;59834;52.124;5.422;2023-02-19T04:15:59;101919.41;;;8.54;100.00
71964;BME280;59834;52.124;5.422;2023-02-19T04:18:30;101925.59;;;8.51;100.00
71964;BME280;59834;52.124;5.422;2023-02-19T04:20:59;101929.06;;;8.52;100.00
71964;BME280;59834;52.124;5.422;2023-02-19T04:23:31;101931.66;;;8.52;100.00
71964;BME280;59834;52.124;5.422;2023-02-19T04:26:10;101936.88;;;8.52;100.00
71964;BME280;59834;52.124;5.422;2023-02-19T04:28:39;101929.97;;;8.50;100.00
71964;BME280;59834;52.124;5.422;2023-02-19T04:31:07;101930.81;;;8.51;100.00
71964;BME280;59834;52.124;5.422;2023-02-19T04:33:35;101934.28;;;8.52;100.00
71964;BME280;59834;52.124;5.422;2023-02-19T04:36:03;101936.88;;;8.52;100.00
71964;BME280;59834;52.124;5.422;2023-02-19T04:38:30;101944.72;;;8.52;100.00
71964;BME280;59834;52.124;5.422;2023-02-19T04:40:56;101950.84;;;8.50;100.00
71964;BME280;59834;52.124;5.422;2023-02-19T04:43:23;101952.53;;;8.52;100.00
71964;BME280;59834;52.124;5.422;2023-02-19T04:45:49;101955.09;;;8.53;100.00
71964;BME280;59834;52.124;5.422;2023-02-19T04:48:16;101964.75;;;8.51;100.00
71964;BME280;59834;52.124;5.422;2023-02-19T04:50:42;101968.28;;;8.50;100.00
71964;BME280;59834;52.124;5.422;2023-02-19T04:53:09;101969.13;;;8.50;100.00
71964;BME280;59834;52.124;5.422;2023-02-19T04:55:37;101972.63;;;8.49;100.00
71964;BME280;59834;52.124;5.422;2023-02-19T04:58:04;101987.38;;;8.50;100.00
71964;BME280;59834;52.124;5.422;2023-02-19T05:00:31;101987.34;;;8.52;100.00
71964;BME280;59834;52.124;5.422;2023-02-19T05:02:59;101985.56;;;8.53;100.00
71964;BME280;59834;52.124;5.422;2023-02-19T05:05:26;101989.06;;;8.52;100.00
71964;BME280;59834;52.124;5.422;2023-02-19T05:07:53;101992.59;;;8.50;100.00
71964;BME280;59834;52.124;5.422;2023-02-19T05:10:19;101984.84;;;8.49;100.00
71964;BME280;59834;52.124;5.422;2023-02-19T05:12:46;101990.06;;;8.49;100.00
71964;BME280;59834;52.124;5.422;2023-02-19T05:15:12;101993.50;;;8.49;100.00
71964;BME280;59834;52.124;5.422;2023-02-19T05:17:39;102001.34;;;8.49;100.00
71964;BME280;59834;52.124;5.422;2023-02-19T05:20:06;102003.94;;;8.49;100.00
71964;BME280;59834;52.124;5.422;2023-02-19T05:22:33;102007.41;;;8.50;100.00
71964;BME280;59834;52.124;5.422;2023-02-19T05:24:59;102006.56;;;8.49;100.00
71964;BME280;59834;52.124;5.422;2023-02-19T05:27:26;102009.16;;;8.49;100.00
71964;BME280;59834;52.124;5.422;2023-02-19T05:29:52;102012.69;;;8.48;100.00
71964;BME280;59834;52.124;5.422;2023-02-19T05:32:19;102022.31;;;8.46;100.00
71964;BME280;59834;52.124;5.422;2023-02-19T05:34:45;102017.09;;;8.46;100.00
71964;BME280;59834;52.124;5.422;2023-02-19T05:37:12;102018.91;;;8.44;100.00
71964;BME280;59834;52.124;5.422;2023-02-19T05:39:38;102024.13;;;8.44;100.00
71964;BME280;59834;52.124;5.422;2023-02-19T05:42:05;102015.53;;;8.42;100.00
71964;BME280;59834;52.124;5.422;2023-02-19T05:44:31;102018.16;;;8.41;100.00
71964;BME280;59834;52.124;5.422;2023-02-19T05:46:58;102022.50;;;8.42;100.00
71964;BME280;59834;52.124;5.422;2023-02-19T05:49:24;102019.88;;;8.42;100.00
71964;BME280;59834;52.124;5.422;2023-02-19T05:51:52;102023.38;;;8.41;100.00
71964;BME280;59834;52.124;5.422;2023-02-19T05:54:18;102022.53;;;8.40;100.00
71964;BME280;59834;52.124;5.422;2023-02-19T05:56:45;102018.16;;;8.41;100.00
71964;BME280;59834;52.124;5.422;2023-02-19T05:59:20;102024.22;;;8.41;100.00
71964;BME280;59834;52.124;5.422;2023-02-19T06:01:48;102032.97;;;8.40;100.00
71964;BME280;59834;52.124;5.422;2023-02-19T06:04:15;102035.47;;;8.43;100.00
71964;BME280;59834;52.124;5.422;2023-02-19T06:06:42;102036.41;;;8.42;100.00
71964;BME280;59834;52.124;5.422;2023-02-19T06:09:09;102036.41;;;8.42;100.00
71964;BME280;59834;52.124;5.422;2023-02-19T06:11:36;102031.28;;;8.39;100.00
71964;BME280;59834;52.124;5.422;2023-02-19T06:14:04;102033.94;;;8.38;100.00
71964;BME280;59834;52.124;5.422;2023-02-19T06:16:31;102050.53;;;8.35;100.00
71964;BME280;59834;52.124;5.422;2023-02-19T06:19:01;102051.38;;;8.36;100.00
71964;BME280;59834;52.124;5.422;2023-02-19T06:21:29;102060.97;;;8.35;100.00
71964;BME280;59834;52.124;5.422;2023-02-19T06:23:55;102066.28;;;8.32;100.00
71964;BME280;59834;52.124;5.422;2023-02-19T06:26:23;102075.81;;;8.33;100.00
71964;BME280;59834;52.124;5.422;2023-02-19T06:28:51;102076.63;;;8.35;100.00
71964;BME280;59834;52.124;5.422;2023-02-19T06:31:19;102074.13;;;8.32;100.00
71964;BME280;59834;52.124;5.422;2023-02-19T06:33:46;102091.56;;;8.30;100.00
71964;BME280;59834;52.124;5.422;2023-02-19T06:36:15;102081.28;;;8.25;100.00
71964;BME280;59834;52.124;5.422;2023-02-19T06:38:42;102082.19;;;8.24;100.00
71964;BME280;59834;52.124;5.422;2023-02-19T06:41:10;102086.59;;;8.22;100.00
71964;BME280;59834;52.124;5.422;2023-02-19T06:43:38;102091.75;;;8.24;100.00
71964;BME280;59834;52.124;5.422;2023-02-19T06:46:05;102091.84;;;8.21;100.00
71964;BME280;59834;52.124;5.422;2023-02-19T06:48:32;102105.81;;;8.20;100.00
71964;BME280;59834;52.124;5.422;2023-02-19T06:50:59;102099.78;;;8.18;100.00
71964;BME280;59834;52.124;5.422;2023-02-19T06:53:26;102102.47;;;8.16;100.00
71964;BME280;59834;52.124;5.422;2023-02-19T06:58:26;102107.84;;;8.12;100.00
71964;BME280;59834;52.124;5.422;2023-02-19T07:00:53;102110.44;;;8.12;100.00
71964;BME280;59834;52.124;5.422;2023-02-19T07:03:20;102113.94;;;8.11;100.00
71964;BME280;59834;52.124;5.422;2023-02-19T07:05:48;102117.34;;;8.13;100.00
71964;BME280;59834;52.124;5.422;2023-02-19T07:08:14;102126.09;;;8.12;100.00
71964;BME280;59834;52.124;5.422;2023-02-19T07:10:43;102140.84;;;8.11;100.00
71964;BME280;59834;52.124;5.422;2023-02-19T07:13:10;102135.63;;;8.13;100.00
71964;BME280;59834;52.124;5.422;2023-02-19T07:15:36;102134.75;;;8.12;100.00
71964;BME280;59834;52.124;5.422;2023-02-19T07:18:03;102143.44;;;8.13;100.00
71964;BME280;59834;52.124;5.422;2023-02-19T07:20:32;102149.50;;;8.13;100.00
71964;BME280;59834;52.124;5.422;2023-02-19T07:22:58;102153.88;;;8.13;100.00
71964;BME280;59834;52.124;5.422;2023-02-19T07:25:25;102160.84;;;8.12;100.00
71964;BME280;59834;52.124;5.422;2023-02-19T07:27:52;102165.16;;;8.13;100.00
71964;BME280;59834;52.124;5.422;2023-02-19T07:30:18;102173.81;;;8.14;100.00
71964;BME280;59834;52.124;5.422;2023-02-19T07:32:45;102166.84;;;8.14;100.00
71964;BME280;59834;52.124;5.422;2023-02-19T07:35:11;102165.06;;;8.16;100.00
71964;BME280;59834;52.124;5.422;2023-02-19T07:37:39;102172.81;;;8.18;100.00
71964;BME280;59834;52.124;5.422;2023-02-19T07:40:08;102185.81;;;8.19;100.00
71964;BME280;59834;52.124;5.422;2023-02-19T07:42:35;102186.59;;;8.21;100.00
71964;BME280;59834;52.124;5.422;2023-02-19T07:45:02;102177.94;;;8.21;100.00
71964;BME280;59834;52.124;5.422;2023-02-19T07:47:29;102177.00;;;8.23;100.00
71964;BME280;59834;52.124;5.422;2023-02-19T07:49:56;102178.75;;;8.23;100.00
71964;BME280;59834;52.124;5.422;2023-02-19T07:52:22;102189.13;;;8.24;100.00
71964;BME280;59834;52.124;5.422;2023-02-19T07:54:49;102190.84;;;8.25;100.00
71964;BME280;59834;52.124;5.422;2023-02-19T07:57:15;102199.63;;;8.23;100.00
71964;BME280;59834;52.124;5.422;2023-02-19T07:59:42;102204.81;;;8.23;100.00
71964;BME280;59834;52.124;5.422;2023-02-19T08:02:19;102211.66;;;8.27;100.00
71964;BME280;59834;52.124;5.422;2023-02-19T08:05:05;102205.53;;;8.28;100.00
71964;BME280;59834;52.124;5.422;2023-02-19T08:07:35;102209.94;;;8.26;100.00
71964;BME280;59834;52.124;5.422;2023-02-19T08:10:03;102213.41;;;8.26;100.00
71964;BME280;59834;52.124;5.422;2023-02-19T08:12:56;102222.19;;;8.24;100.00
71964;BME280;59834;52.124;5.422;2023-02-19T08:15:41;102221.28;;;8.25;100.00
71964;BME280;59834;52.124;5.422;2023-02-19T08:18:09;102217.78;;;8.26;100.00
71964;BME280;59834;52.124;5.422;2023-02-19T08:20:36;102233.34;;;8.29;100.00
71964;BME280;59834;52.124;5.422;2023-02-19T08:23:02;102234.94;;;8.33;100.00
71964;BME280;59834;52.124;5.422;2023-02-19T08:25:30;102234.03;;;8.34;100.00
71964;BME280;59834;52.124;5.422;2023-02-19T08:27:56;102238.47;;;8.32;100.00
71964;BME280;59834;52.124;5.422;2023-02-19T08:30:23;102251.53;;;8.31;100.00
71964;BME280;59834;52.124;5.422;2023-02-19T08:32:49;102253.38;;;8.27;100.00
71964;BME280;59834;52.124;5.422;2023-02-19T08:35:16;102254.38;;;8.23;100.00
71964;BME280;59834;52.124;5.422;2023-02-19T08:37:43;102257.91;;;8.22;100.00
71964;BME280;59834;52.124;5.422;2023-02-19T08:40:10;102259.50;;;8.26;100.00
71964;BME280;59834;52.124;5.422;2023-02-19T08:42:36;102262.81;;;8.31;100.00
71964;BME280;59834;52.124;5.422;2023-02-19T08:45:04;102260.91;;;8.38;100.00
71964;BME280;59834;52.124;5.422;2023-02-19T08:47:33;102266.78;;;8.44;100.00
71964;BME280;59834;52.124;5.422;2023-02-19T08:50:00;102275.13;;;8.56;100.00
71964;BME280;59834;52.124;5.422;2023-02-19T08:52:27;102277.66;;;8.59;100.00
71964;BME280;59834;52.124;5.422;2023-02-19T08:54:54;102274.16;;;8.58;100.00
71964;BME280;59834;52.124;5.422;2023-02-19T08:57:20;102268.25;;;8.53;100.00
71964;BME280;59834;52.124;5.422;2023-02-19T08:59:47;102257.06;;;8.49;100.00
71964;BME280;59834;52.124;5.422;2023-02-19T09:02:13;102277.94;;;8.49;100.00
71964;BME280;59834;52.124;5.422;2023-02-19T09:04:40;102272.44;;;8.59;100.00
71964;BME280;59834;52.124;5.422;2023-02-19T09:07:06;102270.72;;;8.58;100.00
71964;BME280;59834;52.124;5.422;2023-02-19T09:09:38;102263.50;;;8.66;100.00
71964;BME280;59834;52.124;5.422;2023-02-19T09:12:09;102260.25;;;8.84;100.00
71964;BME280;59834;52.124;5.422;2023-02-19T09:14:37;102277.50;;;8.90;100.00
71964;BME280;59834;52.124;5.422;2023-02-19T09:17:05;102284.47;;;8.89;100.00
71964;BME280;59834;52.124;5.422;2023-02-19T09:19:32;102300.84;;;8.94;100.00
71964;BME280;59834;52.124;5.422;2023-02-19T09:21:59;102296.63;;;8.90;100.00
71964;BME280;59834;52.124;5.422;2023-02-19T09:24:25;102285.31;;;8.90;100.00
71964;BME280;59834;52.124;5.422;2023-02-19T09:26:53;102297.34;;;8.95;100.00
71964;BME280;59834;52.124;5.422;2023-02-19T09:29:24;102298.97;;;8.98;100.00
71964;BME280;59834;52.124;5.422;2023-02-19T09:31:58;102306.50;;;9.07;100.00
71964;BME280;59834;52.124;5.422;2023-02-19T09:34:26;102316.31;;;9.01;100.00
71964;BME280;59834;52.124;5.422;2023-02-19T09:36:53;102332.06;;;8.97;100.00
71964;BME280;59834;52.124;5.422;2023-02-19T09:39:20;102338.56;;;8.86;100.00
71964;BME280;59834;52.124;5.422;2023-02-19T09:44:43;102347.09;;;8.91;100.00
71964;BME280;59834;52.124;5.422;2023-02-19T09:47:25;102353.38;;;8.85;100.00
71964;BME280;59834;52.124;5.422;2023-02-19T09:50:00;102367.56;;;8.77;100.00
71964;BME280;59834;52.124;5.422;2023-02-19T09:55:08;102369.50;;;8.70;100.00
71964;BME280;59834;52.124;5.422;2023-02-19T09:57:42;102378.16;;;8.72;100.00
71964;BME280;59834;52.124;5.422;2023-02-19T10:02:37;102374.63;;;8.73;100.00
71964;BME280;59834;52.124;5.422;2023-02-19T10:05:14;102377.25;;;8.73;100.00
71964;BME280;59834;52.124;5.422;2023-02-19T10:07:46;102387.50;;;8.79;100.00
71964;BME280;59834;52.124;5.422;2023-02-19T10:12:50;102406.25;;;8.64;100.00
71964;BME280;59834;52.124;5.422;2023-02-19T10:15:46;102416.00;;;8.57;100.00
71964;BME280;59834;52.124;5.422;2023-02-19T10:18:19;102419.84;;;8.45;100.00
71964;BME280;59834;52.124;5.422;2023-02-19T10:20:46;102428.69;;;8.40;100.00
71964;BME280;59834;52.124;5.422;2023-02-19T10:23:14;102433.13;;;8.36;100.00
71964;BME280;59834;52.124;5.422;2023-02-19T10:25:58;102438.28;;;8.39;100.00
71964;BME280;59834;52.124;5.422;2023-02-19T10:28:30;102445.13;;;8.43;100.00
71964;BME280;59834;52.124;5.422;2023-02-19T10:31:01;102445.81;;;8.50;100.00
71964;BME280;59834;52.124;5.422;2023-02-19T10:33:28;102449.31;;;8.49;100.00
71964;BME280;59834;52.124;5.422;2023-02-19T10:38:44;102466.13;;;8.39;100.00
71964;BME280;59834;52.124;5.422;2023-02-19T10:41:20;102455.56;;;8.43;100.00
71964;BME280;59834;52.124;5.422;2023-02-19T10:44:04;102455.31;;;8.53;100.00
71964;BME280;59834;52.124;5.422;2023-02-19T10:46:35;102459.19;;;8.69;100.00
71964;BME280;59834;52.124;5.422;2023-02-19T10:49:34;102457.41;;;8.69;100.00
71964;BME280;59834;52.124;5.422;2023-02-19T10:52:28;102464.44;;;8.67;100.00
71964;BME280;59834;52.124;5.422;2023-02-19T10:55:12;102472.50;;;8.60;100.00
71964;BME280;59834;52.124;5.422;2023-02-19T10:57:39;102466.63;;;8.52;100.00
71964;BME280;59834;52.124;5.422;2023-02-19T11:02:42;102452.59;;;8.56;100.00
71964;BME280;59834;52.124;5.422;2023-02-19T11:12:59;102453.75;;;8.75;100.00
71964;BME280;59834;52.124;5.422;2023-02-19T11:15:27;102456.50;;;8.70;100.00
71964;BME280;59834;52.124;5.422;2023-02-19T11:20:55;102462.63;;;8.69;100.00
71964;BME280;59834;52.124;5.422;2023-02-19T11:26:00;102475.63;;;8.71;100.00
71964;BME280;59834;52.124;5.422;2023-02-19T11:28:34;102479.16;;;8.70;100.00
71964;BME280;59834;52.124;5.422;2023-02-19T11:36:40;102468.78;;;8.67;100.00
71964;BME280;59834;52.124;5.422;2023-02-19T11:58:50;102476.53;;;8.70;99.72
71964;BME280;59834;52.124;5.422;2023-02-19T12:01:34;102465.50;;;8.60;99.60
71964;BME280;59834;52.124;5.422;2023-02-19T12:04:29;102470.66;;;8.63;99.46
71964;BME280;59834;52.124;5.422;2023-02-19T12:09:35;102482.47;;;8.45;99.72
71964;BME280;59834;52.124;5.422;2023-02-19T12:25:48;102497.72;;;7.95;100.00
71964;BME280;59834;52.124;5.422;2023-02-19T12:37:20;102499.00;;;7.79;100.00
71964;BME280;59834;52.124;5.422;2023-02-19T12:40:07;102514.78;;;7.73;99.78
71964;BME280;59834;52.124;5.422;2023-02-19T12:42:53;102507.88;;;7.70;99.93
71964;BME280;59834;52.124;5.422;2023-02-19T12:45:57;102504.44;;;7.70;100.00
71964;BME280;59834;52.124;5.422;2023-02-19T12:48:39;102514.00;;;7.69;100.00
71964;BME280;59834;52.124;5.422;2023-02-19T12:51:26;102515.84;;;7.66;100.00
71964;BME280;59834;52.124;5.422;2023-02-19T12:54:13;102532.13;;;7.74;100.00
71964;BME280;59834;52.124;5.422;2023-02-19T12:56:48;102528.88;;;7.66;100.00
71964;BME280;59834;52.124;5.422;2023-02-19T12:59:26;102533.31;;;7.61;100.00
71964;BME280;59834;52.124;5.422;2023-02-19T13:04:55;102553.28;;;7.62;100.00
71964;BME280;59834;52.124;5.422;2023-02-19T13:07:41;102537.59;;;7.65;100.00
71964;BME280;59834;52.124;5.422;2023-02-19T13:12:38;102544.34;;;7.72;100.00
71964;BME280;59834;52.124;5.422;2023-02-19T13:15:15;102549.56;;;7.72;100.00
71964;BME280;59834;52.124;5.422;2023-02-19T13:17:50;102559.94;;;7.75;99.89
71964;BME280;59834;52.124;5.422;2023-02-19T13:23:21;102574.13;;;7.62;100.00
71964;BME280;59834;52.124;5.422;2023-02-19T13:29:00;102591.81;;;7.47;100.00
71964;BME280;59834;52.124;5.422;2023-02-19T13:36:27;102579.81;;;7.40;100.00
71964;BME280;59834;52.124;5.422;2023-02-19T13:38:55;102583.34;;;7.39;99.78
71964;BME280;59834;52.124;5.422;2023-02-19T13:41:39;102584.16;;;7.41;100.00
71964;BME280;59834;52.124;5.422;2023-02-19T13:44:18;102582.34;;;7.45;99.88
71964;BME280;59834;52.124;5.422;2023-02-19T13:46:47;102596.19;;;7.47;99.33
71964;BME280;59834;52.124;5.422;2023-02-19T14:01:03;102603.47;;;7.70;97.47
71964;BME280;59834;52.124;5.422;2023-02-19T14:06:07;102604.75;;;7.89;96.11
71964;BME280;59834;52.124;5.422;2023-02-19T14:08:55;102606.53;;;7.87;96.11
71964;BME280;59834;52.124;5.422;2023-02-19T14:12:02;102609.25;;;7.83;95.36
71964;BME280;59834;52.124;5.422;2023-02-19T14:19:56;102600.34;;;7.91;93.94
71964;BME280;59834;52.124;5.422;2023-02-19T14:27:56;102599.25;;;8.01;94.11
71964;BME280;59834;52.124;5.422;2023-02-19T14:30:25;102593.00;;;8.09;93.75
71964;BME280;59834;52.124;5.422;2023-02-19T14:32:53;102589.56;;;8.07;93.78
71964;BME280;59834;52.124;5.422;2023-02-19T14:35:38;102577.38;;;8.07;92.50
71964;BME280;59834;52.124;5.422;2023-02-19T14:38:13;102581.72;;;8.07;91.92
71964;BME280;59834;52.124;5.422;2023-02-19T14:40:43;102574.75;;;8.09;91.26
71964;BME280;59834;52.124;5.422;2023-02-19T14:43:14;102574.81;;;8.06;91.05
71964;BME280;59834;52.124;5.422;2023-02-19T14:45:45;102566.91;;;8.09;90.76
71964;BME280;59834;52.124;5.422;2023-02-19T14:48:33;102553.91;;;8.07;90.09
71964;BME280;59834;52.124;5.422;2023-02-19T14:51:10;102566.09;;;8.07;90.26
71964;BME280;59834;52.124;5.422;2023-02-19T14:53:42;102556.44;;;8.10;89.83
71964;BME280;59834;52.124;5.422;2023-02-19T14:56:22;102563.53;;;8.05;89.34
71964;BME280;59834;52.124;5.422;2023-02-19T15:01:38;102550.28;;;8.13;89.34
71964;BME280;59834;52.124;5.422;2023-02-19T15:04:05;102543.94;;;8.21;88.33
71964;BME280;59834;52.124;5.422;2023-02-19T15:06:34;102540.47;;;8.22;87.81
71964;BME280;59834;52.124;5.422;2023-02-19T15:09:05;102539.63;;;8.20;87.52
71964;BME280;59834;52.124;5.422;2023-02-19T15:11:33;102537.88;;;8.21;87.27
71964;BME280;59834;52.124;5.422;2023-02-19T15:14:06;102547.25;;;8.28;87.08
71964;BME280;59834;52.124;5.422;2023-02-19T15:16:34;102559.50;;;8.26;87.42
71964;BME280;59834;52.124;5.422;2023-02-19T15:19:05;102570.09;;;8.20;88.80
71964;BME280;59834;52.124;5.422;2023-02-19T15:21:36;102578.13;;;8.12;88.78
71964;BME280;59834;52.124;5.422;2023-02-19T15:24:05;102584.47;;;8.00;88.88
71964;BME280;59834;52.124;5.422;2023-02-19T15:26:38;102588.19;;;7.92;91.05
71964;BME280;59834;52.124;5.422;2023-02-19T15:29:10;102597.13;;;7.82;91.98
71964;BME280;59834;52.124;5.422;2023-02-19T15:31:53;102600.53;;;7.85;91.98
71964;BME280;59834;52.124;5.422;2023-02-19T15:34:23;102613.63;;;7.82;91.66
71964;BME280;59834;52.124;5.422;2023-02-19T15:36:54;102611.88;;;7.81;92.76
71964;BME280;59834;52.124;5.422;2023-02-19T15:39:24;102613.56;;;7.85;93.29
71964;BME280;59834;52.124;5.422;2023-02-19T15:41:57;102622.31;;;7.81;94.06
71964;BME280;59834;52.124;5.422;2023-02-19T15:47:25;102609.53;;;7.70;94.00
71964;BME280;59834;52.124;5.422;2023-02-19T15:50:00;102618.41;;;7.63;94.33
71964;BME280;59834;52.124;5.422;2023-02-19T15:52:35;102608.16;;;7.55;93.23